Time;durP1;ratioP1;P1;durP2;ratioP2;P2;SDS_P1;SDS_P2;PMS_P1;PMS_P2;Temp;Humidity;BMP_temperature;BMP_pressure;BME280_temperature;BME280_humidity;BME280_pressure;Samples;Min_cycle;Max_cycle;Signal;HPM_P1;HPM_P2
2023/11/11 00:00:41;;;;;;;9.43;3.35;;;;;;;25.34;38.65;98277.44;4484946;32;34788;-58
2023/11/11 00:03:09;;;;;;;9.70;3.40;;;;;;;25.33;38.67;98284.00;4484865;32;34194;-58
2023/11/11 00:05:37;;;;;;;4.87;2.90;;;;;;;25.30;38.77;98281.81;4484819;32;34066;-58
2023/11/11 00:08:04;;;;;;;8.32;3.33;;;;;;;25.30;38.75;98267.34;4485216;32;33988;-58
2023/11/11 00:10:32;;;;;;;5.70;3.20;;;;;;;25.26;38.88;98267.09;4484583;31;33576;-59
2023/11/11 00:12:59;;;;;;;7.18;3.40;;;;;;;25.26;38.89;98272.53;4484978;32;32890;-59
2023/11/11 00:15:27;;;;;;;7.57;3.28;;;;;;;25.25;38.94;98275.56;4484099;32;33373;-59
2023/11/11 00:17:55;;;;;;;6.07;3.37;;;;;;;25.23;38.98;98267.66;4484744;32;34239;-58
2023/11/11 00:20:22;;;;;;;11.52;2.85;;;;;;;25.23;38.98;98272.28;4484761;32;33817;-60
2023/11/11 00:22:52;;;;;;;5.65;3.10;;;;;;;25.21;39.03;98274.47;4484822;32;33180;-61
2023/11/11 00:25:21;;;;;;;6.70;3.00;;;;;;;25.19;39.10;98261.91;4484699;32;33584;-57
2023/11/11 00:27:48;;;;;;;5.97;3.03;;;;;;;25.20;39.10;98262.75;4484813;32;34046;-59
2023/11/11 00:30:16;;;;;;;5.93;2.78;;;;;;;25.18;39.14;98267.62;4484659;32;34502;-58
2023/11/11 00:32:48;;;;;;;6.12;3.50;;;;;;;25.17;39.11;98261.34;4484698;32;33582;-58
2023/11/11 00:35:16;;;;;;;6.97;3.03;;;;;;;25.15;39.21;98266.28;4484735;32;33969;-59
2023/11/11 00:37:45;;;;;;;7.22;3.10;;;;;;;25.14;39.20;98263.84;4483415;32;32725;-58
2023/11/11 00:40:12;;;;;;;7.93;3.10;;;;;;;25.14;39.24;98247.47;4483056;32;33479;-58
2023/11/11 00:42:40;;;;;;;4.47;2.78;;;;;;;25.13;39.23;98264.91;4481253;32;33236;-57
2023/11/11 00:45:08;;;;;;;5.57;3.15;;;;;;;25.12;39.27;98260.56;4468950;32;33816;-58
2023/11/11 00:47:36;;;;;;;8.98;2.67;;;;;;;25.11;39.24;98264.38;4474550;32;34045;-58
2023/11/11 00:50:05;;;;;;;5.05;3.00;;;;;;;25.09;39.22;98267.41;4484526;32;33944;-57
2023/11/11 00:52:34;;;;;;;4.97;2.30;;;;;;;25.10;39.24;98268.22;4484583;32;33590;-58
2023/11/11 00:55:02;;;;;;;4.90;2.87;;;;;;;25.09;39.25;98266.59;4484769;32;34058;-58
2023/11/11 00:57:29;;;;;;;7.60;3.08;;;;;;;25.08;39.30;98254.81;4484626;32;34727;-59
2023/11/11 00:59:58;;;;;;;5.93;2.83;;;;;;;25.05;39.34;98254.53;4484247;32;33979;-57
2023/11/11 01:02:25;;;;;;;5.57;3.03;;;;;;;25.05;39.31;98260.81;4484654;32;33489;-58
2023/11/11 01:04:53;;;;;;;7.78;3.28;;;;;;;25.03;39.34;98256.72;4483321;32;34575;-58
2023/11/11 01:07:21;;;;;;;4.55;2.60;;;;;;;25.03;39.34;98251.25;4484449;32;34536;-59
2023/11/11 01:09:50;;;;;;;6.03;3.05;;;;;;;25.01;39.34;98248.00;4484436;32;34219;-58
2023/11/11 01:12:19;;;;;;;7.43;2.87;;;;;;;25.00;39.35;98251.81;4484588;32;33288;-57
2023/11/11 01:14:47;;;;;;;6.50;2.87;;;;;;;24.99;39.35;98250.97;4484380;32;33971;-58
2023/11/11 01:17:15;;;;;;;7.18;2.70;;;;;;;24.98;39.42;98252.06;4484494;32;34758;-60
2023/11/11 01:19:42;;;;;;;5.82;3.12;;;;;;;24.96;39.46;98251.53;4484407;32;34145;-60
2023/11/11 01:22:13;;;;;;;5.35;2.70;;;;;;;24.96;39.46;98243.34;4484178;32;34110;-56
2023/11/11 01:24:41;;;;;;;5.40;3.00;;;;;;;24.94;39.50;98248.25;4483148;32;34695;-57
2023/11/11 01:27:11;;;;;;;4.53;2.65;;;;;;;24.94;39.49;98246.34;4484281;32;34036;-56
2023/11/11 01:29:39;;;;;;;9.90;3.00;;;;;;;24.93;39.55;98235.72;4483198;32;33959;-58
2023/11/11 01:32:06;;;;;;;5.97;2.72;;;;;;;24.92;39.62;98237.62;4484383;32;33046;-57
2023/11/11 01:34:34;;;;;;;5.93;2.85;;;;;;;24.91;39.60;98237.91;4484197;32;33798;-59
2023/11/11 01:37:07;;;;;;;7.10;2.75;;;;;;;24.90;39.60;98241.72;4484072;32;33952;-58
2023/11/11 01:39:35;;;;;;;7.72;3.15;;;;;;;24.89;39.65;98234.63;4484676;32;33640;-58
2023/11/11 01:42:03;;;;;;;6.37;3.28;;;;;;;24.88;39.75;98235.72;4482627;32;33151;-56
2023/11/11 01:44:31;;;;;;;4.87;2.62;;;;;;;24.87;39.77;98237.62;4484613;32;33921;-58
2023/11/11 01:46:58;;;;;;;5.72;2.70;;;;;;;24.86;39.85;98235.19;4484190;32;33775;-57
2023/11/11 01:49:26;;;;;;;4.37;2.58;;;;;;;24.84;39.92;98227.25;4482076;32;33886;-58
2023/11/11 01:51:53;;;;;;;4.53;2.72;;;;;;;24.86;39.85;98225.09;4482958;32;33644;-58
2023/11/11 01:54:21;;;;;;;5.05;2.45;;;;;;;24.85;39.84;98228.06;4469952;32;34493;-59
2023/11/11 01:56:50;;;;;;;6.47;3.10;;;;;;;24.85;39.90;98222.63;4482825;32;34650;-59
2023/11/11 01:59:17;;;;;;;4.55;2.50;;;;;;;24.83;39.92;98231.09;4482836;32;34748;-57
2023/11/11 02:01:45;;;;;;;8.52;3.15;;;;;;;24.83;39.94;98225.63;4483918;32;33476;-58
2023/11/11 02:04:14;;;;;;;4.87;2.78;;;;;;;24.82;40.02;98223.19;4483934;32;33423;-58
2023/11/11 02:06:42;;;;;;;5.32;2.53;;;;;;;24.83;39.98;98235.72;4483895;32;34746;-60
2023/11/11 02:09:10;;;;;;;5.20;2.55;;;;;;;24.82;40.04;98228.62;4483817;32;34808;-58
2023/11/11 02:11:38;;;;;;;4.60;2.85;;;;;;;24.81;39.95;98232.47;4483807;32;33135;-58
2023/11/11 02:14:06;;;;;;;4.87;2.55;;;;;;;24.80;40.00;98234.34;4482774;32;33597;-58
2023/11/11 02:16:34;;;;;;;5.62;2.67;;;;;;;24.80;39.95;98236.25;4483829;32;34481;-58
2023/11/11 02:19:02;;;;;;;5.18;2.67;;;;;;;24.79;39.96;98238.16;4483652;32;33944;-59
2023/11/11 02:21:31;;;;;;;4.22;2.50;;;;;;;24.78;40.04;98242.00;4483774;32;33636;-58
2023/11/11 02:23:59;;;;;;;4.07;2.35;;;;;;;24.78;40.03;98238.44;4483790;32;33754;-59
2023/11/11 02:26:27;;;;;;;5.22;2.70;;;;;;;24.78;40.05;98243.91;4483737;32;34356;-58
2023/11/11 02:28:55;;;;;;;4.12;2.45;;;;;;;24.76;40.04;98237.88;4483673;32;33770;-58
2023/11/11 02:31:23;;;;;;;3.33;1.87;;;;;;;24.75;40.09;98233.53;4483546;32;33235;-60
2023/11/11 02:33:50;;;;;;;5.35;2.53;;;;;;;24.75;40.03;98230.81;4483653;32;34151;-56
2023/11/11 02:36:19;;;;;;;5.78;2.62;;;;;;;24.74;40.12;98226.44;4483517;32;33878;-56
2023/11/11 02:38:47;;;;;;;5.25;2.30;;;;;;;24.73;40.18;98231.09;4484830;32;34013;-57
2023/11/11 02:41:14;;;;;;;4.28;2.37;;;;;;;24.72;40.17;98226.72;4485585;32;33373;-56
2023/11/11 02:43:42;;;;;;;4.12;2.33;;;;;;;24.72;40.15;98228.66;4485542;32;33349;-58
2023/11/11 02:46:09;;;;;;;4.90;2.50;;;;;;;24.71;40.23;98226.97;4485585;32;34698;-58
2023/11/11 02:48:37;;;;;;;6.85;2.70;;;;;;;24.70;40.26;98220.72;4485390;32;34514;-57
2023/11/11 02:51:05;;;;;;;8.45;2.45;;;;;;;24.69;40.29;98225.34;4485430;32;33621;-58
2023/11/11 02:53:32;;;;;;;5.47;2.30;;;;;;;24.69;40.29;98230.00;4485362;32;33749;-56
2023/11/11 02:56:00;;;;;;;5.60;3.00;;;;;;;24.69;40.31;98219.91;4485494;32;34769;-58
2023/11/11 02:58:27;;;;;;;4.93;2.75;;;;;;;24.68;40.30;98207.34;4485374;32;34203;-59
2023/11/11 03:00:55;;;;;;;5.93;2.95;;;;;;;24.68;40.30;98203.81;4485253;32;33164;-60
2023/11/11 03:03:22;;;;;;;4.90;2.45;;;;;;;24.66;40.34;98193.16;4485378;32;33938;-60
2023/11/11 03:05:51;;;;;;;5.60;2.83;;;;;;;24.66;40.31;98190.44;4485448;32;33685;-59
2023/11/11 03:08:19;;;;;;;6.93;2.62;;;;;;;24.65;40.30;98186.06;4485217;32;33900;-59
2023/11/11 03:10:47;;;;;;;5.57;2.37;;;;;;;24.66;40.26;98179.53;4485316;32;33241;-60
2023/11/11 03:13:16;;;;;;;4.57;2.60;;;;;;;24.66;40.30;98178.72;4485312;32;33942;-59
2023/11/11 03:15:43;;;;;;;3.92;2.33;;;;;;;24.64;40.34;98173.53;4485514;32;33954;-59
2023/11/11 03:18:11;;;;;;;6.60;2.37;;;;;;;24.65;40.30;98169.72;4485399;32;34345;-59
2023/11/11 03:20:40;;;;;;;4.68;2.70;;;;;;;24.64;40.34;98170.00;4485292;32;34076;-58
2023/11/11 03:23:08;;;;;;;5.50;3.03;;;;;;;24.63;40.27;98163.72;4484964;32;34177;-58
2023/11/11 03:25:36;;;;;;;3.80;2.40;;;;;;;24.63;40.26;98155.53;4485152;32;33916;-59
2023/11/11 03:28:03;;;;;;;5.72;2.72;;;;;;;24.63;40.30;98157.47;4485220;32;33772;-58
2023/11/11 03:30:31;;;;;;;5.47;2.45;;;;;;;24.63;40.32;98161.00;4485156;32;33189;-58
2023/11/11 03:32:58;;;;;;;4.07;2.35;;;;;;;24.62;40.23;98150.34;4485178;32;33871;-57
2023/11/11 03:35:26;;;;;;;6.55;2.55;;;;;;;24.60;40.33;98150.63;4485104;32;33952;-60
2023/11/11 03:37:54;;;;;;;3.97;2.20;;;;;;;24.59;40.32;98153.62;4485041;32;33541;-58
2023/11/11 03:40:21;;;;;;;4.47;2.47;;;;;;;24.59;40.33;98150.91;4485133;32;33431;-56
2023/11/11 03:42:50;;;;;;;6.50;2.40;;;;;;;24.59;40.40;98157.19;4485104;32;34709;-59
2023/11/11 03:45:17;;;;;;;4.97;2.62;;;;;;;24.59;40.39;98157.19;4485227;32;34114;-60
2023/11/11 03:47:45;;;;;;;4.57;2.17;;;;;;;24.60;40.38;98161.53;4484896;32;34229;-59
2023/11/11 03:50:13;;;;;;;4.07;2.17;;;;;;;24.58;40.34;98162.91;4483953;32;34587;-59
2023/11/11 03:52:40;;;;;;;3.92;2.30;;;;;;;24.58;40.28;98165.66;4484919;32;33843;-58
2023/11/11 03:55:08;;;;;;;3.53;2.10;;;;;;;24.56;40.34;98171.34;4485067;32;35262;-57
2023/11/11 03:57:36;;;;;;;5.05;2.60;;;;;;;24.56;40.43;98171.34;4485033;32;34532;-58
2023/11/11 04:00:11;;;;;;;4.57;2.40;;;;;;;24.55;40.45;98169.72;4483636;32;33578;-58
2023/11/11 04:02:39;;;;;;;6.95;2.45;;;;;;;24.55;40.52;98163.47;4484841;32;33929;-57
2023/11/11 04:05:10;;;;;;;4.78;2.40;;;;;;;24.54;40.47;98154.47;4484882;32;34287;-59
2023/11/11 04:07:41;;;;;;;4.30;2.37;;;;;;;24.54;40.48;98149.00;4485066;32;34452;-58
2023/11/11 04:10:08;;;;;;;4.28;2.10;;;;;;;24.53;40.57;98150.09;4483663;31;33422;-60
2023/11/11 04:12:37;;;;;;;4.03;2.20;;;;;;;24.53;40.49;98147.38;4484999;32;33836;-57
2023/11/11 04:15:05;;;;;;;4.90;2.70;;;;;;;24.52;40.51;98136.72;4485041;32;34132;-58
2023/11/11 04:17:33;;;;;;;4.50;2.53;;;;;;;24.52;40.54;98144.91;4484921;32;33525;-58
2023/11/11 04:20:00;;;;;;;5.72;2.42;;;;;;;24.52;40.49;98134.81;4484853;32;32976;-57
2023/11/11 04:22:28;;;;;;;3.87;2.33;;;;;;;24.52;40.49;98139.44;4484832;32;33837;-57
2023/11/11 04:24:56;;;;;;;4.53;2.40;;;;;;;24.51;40.52;98130.47;4484559;32;34143;-56
2023/11/11 04:27:23;;;;;;;4.03;2.25;;;;;;;24.51;40.51;98138.63;4484634;32;34047;-59
2023/11/11 04:29:51;;;;;;;4.18;2.30;;;;;;;24.51;40.49;98137.81;4484758;32;34136;-58
2023/11/11 04:32:21;;;;;;;3.87;2.12;;;;;;;24.52;40.44;98139.44;4484798;32;33954;-57
2023/11/11 04:34:49;;;;;;;3.72;2.08;;;;;;;24.51;40.39;98137.81;4483425;32;33761;-54
2023/11/11 04:37:17;;;;;;;5.18;2.22;;;;;;;24.52;40.35;98131.28;4484615;32;34693;-57
2023/11/11 04:39:45;;;;;;;4.28;2.12;;;;;;;24.51;40.40;98125.00;4483686;32;34109;-59
2023/11/11 04:42:16;;;;;;;4.37;2.45;;;;;;;24.50;40.45;98133.47;4484692;32;34341;-56
2023/11/11 04:44:47;;;;;;;3.47;2.10;;;;;;;24.49;40.47;98124.47;4484722;32;34893;-57
2023/11/11 04:47:14;;;;;;;3.12;1.85;;;;;;;24.48;40.58;98125.56;4484541;32;34005;-57
2023/11/11 04:49:42;;;;;;;5.07;2.62;;;;;;;24.48;40.54;98125.56;4484502;32;33343;-57
2023/11/11 04:52:10;;;;;;;4.07;2.25;;;;;;;24.48;40.54;98136.47;4484690;32;34416;-52
2023/11/11 04:54:37;;;;;;;5.05;2.60;;;;;;;24.48;40.54;98125.56;4470396;32;34911;-58
2023/11/11 04:57:05;;;;;;;4.07;2.12;;;;;;;24.46;40.64;98130.47;4484562;32;34331;-55
2023/11/11 04:59:32;;;;;;;3.22;2.03;;;;;;;24.47;40.57;98128.56;4484662;32;33627;-56
2023/11/11 05:02:01;;;;;;;6.05;2.33;;;;;;;24.46;40.58;98122.28;4483930;32;34459;-58
2023/11/11 05:04:28;;;;;;;5.37;2.37;;;;;;;24.45;40.61;98119.84;4484560;32;33996;-58
2023/11/11 05:06:56;;;;;;;4.68;2.20;;;;;;;24.45;40.69;98125.28;4484605;32;33718;-57
2023/11/11 05:09:23;;;;;;;5.03;2.60;;;;;;;24.43;40.71;98131.84;4484233;32;34196;-58
2023/11/11 05:11:51;;;;;;;3.78;2.05;;;;;;;24.43;40.66;98129.12;4484790;32;34284;-59
2023/11/11 05:14:19;;;;;;;4.62;2.50;;;;;;;24.45;40.62;98141.66;4483368;32;33642;-58
2023/11/11 05:16:50;;;;;;;3.10;1.95;;;;;;;24.42;40.63;98148.44;4484319;32;33910;-58
2023/11/11 05:19:18;;;;;;;5.20;2.15;;;;;;;24.40;40.68;98146.00;4484614;32;34315;-57
2023/11/11 05:21:46;;;;;;;5.45;2.20;;;;;;;24.42;40.70;98151.19;4484706;32;33897;-58
2023/11/11 05:24:14;;;;;;;5.80;2.80;;;;;;;24.39;40.72;98154.47;4484259;32;33543;-59
2023/11/11 05:26:42;;;;;;;4.10;2.10;;;;;;;24.41;40.71;98150.38;4484357;32;34155;-57
2023/11/11 05:29:10;;;;;;;4.60;1.80;;;;;;;24.39;40.75;98151.75;4484398;32;33614;-57
2023/11/11 05:31:37;;;;;;;5.05;2.45;;;;;;;24.39;40.78;98151.75;4484281;32;34828;-57
2023/11/11 05:34:05;;;;;;;7.07;2.40;;;;;;;24.39;40.76;98151.75;4484702;32;34043;-55
2023/11/11 05:36:33;;;;;;;4.18;2.10;;;;;;;24.38;40.76;98142.72;4480269;32;34037;-61
2023/11/11 05:39:01;;;;;;;4.50;2.37;;;;;;;24.37;40.73;98141.09;4490718;31;33221;-58
2023/11/11 05:41:30;;;;;;;6.15;2.80;;;;;;;24.37;40.48;98145.72;4499746;31;33908;-58
2023/11/11 05:43:58;;;;;;;4.87;2.40;;;;;;;24.36;40.44;98142.19;4486115;31;34012;-59
2023/11/11 05:46:25;;;;;;;4.20;1.70;;;;;;;24.38;40.59;98141.91;4483895;32;33544;-56
2023/11/11 05:48:53;;;;;;;4.72;2.22;;;;;;;24.36;40.53;98141.34;4483859;32;32948;-58
2023/11/11 05:51:22;;;;;;;6.00;2.30;;;;;;;24.36;40.55;98150.38;4483579;32;34768;-59
2023/11/11 05:53:50;;;;;;;4.75;2.25;;;;;;;24.36;40.59;98158.53;4483892;32;34755;-59
2023/11/11 05:56:19;;;;;;;4.57;2.47;;;;;;;24.37;40.59;98156.63;4483656;32;35056;-57
2023/11/11 05:58:48;;;;;;;5.45;2.28;;;;;;;24.36;40.62;98165.88;4483891;32;33530;-58
2023/11/11 06:01:16;;;;;;;5.25;2.40;;;;;;;24.36;40.64;98158.53;4483743;32;34547;-58
2023/11/11 06:03:44;;;;;;;9.18;2.20;;;;;;;24.36;40.65;98161.28;4483549;32;34023;-58
2023/11/11 06:06:12;;;;;;;5.35;2.10;;;;;;;24.37;40.68;98168.34;4483436;32;33843;-58
2023/11/11 06:08:39;;;;;;;5.80;2.22;;;;;;;24.35;40.73;98166.97;4484006;32;33051;-57
2023/11/11 06:11:07;;;;;;;5.03;2.22;;;;;;;24.36;40.72;98171.34;4483451;32;33898;-59
2023/11/11 06:13:35;;;;;;;3.90;1.85;;;;;;;24.35;40.73;98181.41;4482359;32;34992;-60
2023/11/11 06:16:04;;;;;;;3.35;2.15;;;;;;;24.35;40.76;98180.59;4483276;32;34675;-60
2023/11/11 06:18:32;;;;;;;4.57;2.42;;;;;;;24.35;40.74;98183.31;4483597;32;33785;-57
2023/11/11 06:21:00;;;;;;;5.32;1.80;;;;;;;24.34;40.74;98181.66;4482294;32;32799;-57
2023/11/11 06:23:28;;;;;;;3.70;1.90;;;;;;;24.35;40.77;98191.50;4482858;32;34000;-57
2023/11/11 06:25:59;;;;;;;6.12;2.40;;;;;;;24.34;40.77;98184.41;4482866;32;33537;-58
2023/11/11 06:28:26;;;;;;;5.22;2.47;;;;;;;24.34;40.82;98182.50;4483311;32;33443;-58
2023/11/11 06:30:54;;;;;;;6.53;2.37;;;;;;;24.34;40.85;98182.50;4483217;32;33981;-59
2023/11/11 06:33:22;;;;;;;4.22;1.83;;;;;;;24.34;40.89;98176.22;4483250;32;34410;-58
2023/11/11 06:35:50;;;;;;;3.25;2.05;;;;;;;24.34;40.89;98182.50;4481391;32;33995;-59
2023/11/11 06:38:18;;;;;;;4.28;2.20;;;;;;;24.33;40.95;98189.03;4482355;32;33107;-57
2023/11/11 06:40:46;;;;;;;3.50;1.85;;;;;;;24.33;40.97;98188.22;4483182;32;33653;-57
2023/11/11 06:43:14;;;;;;;3.65;2.10;;;;;;;24.31;40.96;98179.50;4482699;32;34838;-57
2023/11/11 06:45:41;;;;;;;4.95;2.00;;;;;;;24.31;40.97;98185.78;4480531;32;33736;-57
2023/11/11 06:48:10;;;;;;;3.40;1.90;;;;;;;24.31;40.96;98180.31;4482455;32;33406;-58
2023/11/11 06:50:37;;;;;;;3.17;1.80;;;;;;;24.31;41.02;98174.88;4483196;32;33579;-59
2023/11/11 06:53:05;;;;;;;4.18;1.77;;;;;;;24.32;41.02;98172.97;4482371;32;33698;-56
2023/11/11 06:55:34;;;;;;;5.90;2.30;;;;;;;24.31;41.00;98171.34;4482428;32;34919;-59
2023/11/11 06:58:02;;;;;;;3.58;1.98;;;;;;;24.32;41.05;98181.13;4482713;32;34096;-57
2023/11/11 07:00:34;;;;;;;4.30;2.00;;;;;;;24.31;41.05;98176.78;4480657;32;33894;-59
2023/11/11 07:03:02;;;;;;;3.17;1.73;;;;;;;24.31;41.05;98182.22;4482689;32;34040;-59
2023/11/11 07:05:30;;;;;;;4.78;2.15;;;;;;;24.31;41.07;98179.50;4482663;32;34661;-59
2023/11/11 07:07:58;;;;;;;3.83;1.90;;;;;;;24.31;41.09;98174.88;4482544;32;34523;-59
2023/11/11 07:10:28;;;;;;;4.10;2.12;;;;;;;24.30;41.06;98175.97;4482711;31;34396;-56
2023/11/11 07:12:56;;;;;;;4.18;1.95;;;;;;;24.31;41.07;98179.50;4482442;32;33564;-57
2023/11/11 07:15:24;;;;;;;4.93;2.28;;;;;;;24.30;41.12;98175.16;4482769;32;33442;-59
2023/11/11 07:17:53;;;;;;;4.05;2.10;;;;;;;24.30;41.07;98166.97;4482497;32;33197;-55
2023/11/11 07:20:21;;;;;;;4.37;2.35;;;;;;;24.30;41.11;98170.50;4482650;32;33363;-56
2023/11/11 07:22:49;;;;;;;3.62;1.92;;;;;;;24.29;41.17;98170.75;4482542;32;33559;-58
2023/11/11 07:25:17;;;;;;;3.47;2.05;;;;;;;24.29;41.12;98174.31;4484766;32;34383;-57
2023/11/11 07:27:44;;;;;;;4.72;2.22;;;;;;;24.30;41.23;98183.31;4485015;32;34260;-59
2023/11/11 07:30:12;;;;;;;4.45;2.08;;;;;;;24.30;41.13;98175.16;4484665;32;34614;-57
2023/11/11 07:32:40;;;;;;;4.37;2.10;;;;;;;24.29;41.16;98178.94;4484768;32;34282;-59
2023/11/11 07:35:26;;;;;;;5.30;2.20;;;;;;;24.29;41.13;98179.75;4484715;32;33478;-59
2023/11/11 07:37:54;;;;;;;3.35;1.80;;;;;;;24.30;41.15;98178.69;4498534;31;34053;-60
2023/11/11 07:40:24;;;;;;;3.60;1.80;;;;;;;24.31;41.20;98182.22;4500732;31;33798;-57
2023/11/11 07:42:55;;;;;;;4.37;1.90;;;;;;;24.31;41.19;98174.88;4500668;31;34447;-58
2023/11/11 07:45:24;;;;;;;3.17;1.83;;;;;;;24.32;41.21;98181.13;4500710;31;34287;-58
2023/11/11 07:47:52;;;;;;;12.75;8.05;;;;;;;24.32;41.21;98181.94;4499665;31;33197;-59
2023/11/11 07:50:23;;;;;;;12.65;6.75;;;;;;;24.35;39.32;98175.97;4500608;31;34577;-59
2023/11/11 07:52:51;;;;;;;10.90;3.35;;;;;;;24.29;39.04;98170.75;4500840;31;34361;-59
2023/11/11 07:55:18;;;;;;;6.00;3.33;;;;;;;24.29;39.91;98170.75;4500865;31;34044;-60
2023/11/11 07:57:46;;;;;;;8.02;2.83;;;;;;;24.29;39.87;98163.41;4500684;31;33513;-61
2023/11/11 08:00:18;;;;;;;7.62;3.45;;;;;;;24.33;39.83;98166.41;4501094;31;34190;-54
2023/11/11 08:02:49;;;;;;;;;;;;;;;24.37;39.78;98164.81;4501021;31;34020;-57
2023/11/11 08:05:16;;;;;;;;;;;;;;;24.52;39.47;98164.81;4500922;31;34209;-60
2023/11/11 08:07:44;;;;;;;6.12;3.15;;;;;;;24.58;39.58;98158.28;4500994;31;33106;-56
2023/11/11 08:10:13;;;;;;;6.22;2.70;;;;;;;24.46;39.97;98162.38;4500576;31;34656;-57
2023/11/11 08:12:40;;;;;;;7.35;2.72;;;;;;;24.43;40.07;98163.72;4500642;31;34518;-58
2023/11/11 08:15:08;;;;;;;5.43;2.75;;;;;;;24.48;40.05;98162.91;4500961;31;34086;-57
2023/11/11 08:17:37;;;;;;;4.57;2.70;;;;;;;24.55;39.97;98160.72;4500677;31;33341;-55
2023/11/11 08:20:11;;;;;;;5.40;2.80;;;;;;;24.68;39.88;98154.72;4500683;31;34340;-60
2023/11/11 08:22:42;;;;;;;4.70;2.45;;;;;;;24.82;39.77;98152.25;4500591;31;33743;-57
2023/11/11 08:25:12;;;;;;;6.30;2.25;;;;;;;24.93;39.65;98157.41;4500416;31;34401;-60
2023/11/11 08:27:44;;;;;;;4.95;2.37;;;;;;;25.05;39.54;98157.13;4500542;31;33389;-58
2023/11/11 08:30:12;;;;;;;5.50;2.37;;;;;;;25.17;39.41;98157.66;4500605;31;34164;-58
2023/11/11 08:32:39;;;;;;;5.43;2.55;;;;;;;25.29;39.25;98159.25;4499150;31;34812;-55
2023/11/11 08:35:08;;;;;;;4.70;2.35;;;;;;;25.40;39.11;98167.13;4499866;31;34306;-58
2023/11/11 08:37:36;;;;;;;4.45;2.37;;;;;;;25.52;38.96;98166.00;4486240;31;33397;-59
2023/11/11 08:40:07;;;;;;;6.20;2.42;;;;;;;25.61;38.83;98162.41;4484628;32;33632;-54
2023/11/11 08:42:35;;;;;;;4.97;2.15;;;;;;;25.69;38.69;98164.56;4484752;32;34023;-57
2023/11/11 08:45:02;;;;;;;5.53;2.42;;;;;;;25.77;38.60;98165.91;4484356;32;33827;-57
2023/11/11 08:47:30;;;;;;;5.25;2.47;;;;;;;25.86;38.49;98163.41;4484760;32;32956;-60
2023/11/11 08:49:58;;;;;;;5.00;2.35;;;;;;;25.94;38.40;98162.81;4484614;32;33853;-59
2023/11/11 08:52:27;;;;;;;4.28;2.20;;;;;;;26.02;38.28;98155.91;4484104;32;34149;-61
2023/11/11 08:54:55;;;;;;;6.00;2.58;;;;;;;26.09;38.22;98159.97;4484617;32;33440;-61
2023/11/11 08:57:23;;;;;;;7.82;2.35;;;;;;;26.16;38.09;98167.84;4484555;32;33404;-57
2023/11/11 08:59:51;;;;;;;4.50;2.12;;;;;;;26.19;38.04;98168.09;4484300;32;33599;-61
2023/11/11 09:02:19;;;;;;;4.12;2.20;;;;;;;26.25;37.97;98162.59;4484329;32;34012;-57
2023/11/11 09:04:47;;;;;;;3.58;2.05;;;;;;;26.28;37.92;98164.78;4484246;32;34602;-58
2023/11/11 09:07:14;;;;;;;3.70;2.47;;;;;;;26.30;37.85;98168.03;4484172;32;34265;-55
2023/11/11 09:09:42;;;;;;;4.00;1.90;;;;;;;26.31;37.83;98161.47;4482958;31;34001;-58
2023/11/11 09:12:09;;;;;;;5.10;2.15;;;;;;;26.32;37.80;98163.09;4483864;32;34137;-58
2023/11/11 09:14:37;;;;;;;4.40;2.17;;;;;;;26.31;37.79;98161.47;4484342;32;34998;-58
2023/11/11 09:17:05;;;;;;;4.20;2.15;;;;;;;26.30;37.80;98168.03;4484367;32;33054;-59
2023/11/11 09:19:33;;;;;;;4.53;1.92;;;;;;;26.30;37.79;98160.66;4484609;32;34066;-58
2023/11/11 09:22:01;;;;;;;4.37;2.33;;;;;;;26.29;37.81;98169.94;4484268;32;33995;-58
2023/11/11 09:24:28;;;;;;;4.53;2.40;;;;;;;26.27;37.81;98160.41;4484329;32;33402;-59
2023/11/11 09:26:56;;;;;;;4.28;2.03;;;;;;;26.26;37.83;98158.78;4484301;32;34233;-60
2023/11/11 09:29:27;;;;;;;3.58;2.05;;;;;;;26.22;37.85;98158.53;4483925;32;34596;-60
2023/11/11 09:31:55;;;;;;;5.78;2.28;;;;;;;26.19;37.88;98162.63;4484189;32;33599;-62
2023/11/11 09:34:23;;;;;;;5.20;2.25;;;;;;;26.19;37.89;98157.16;4483931;32;34787;-61
2023/11/11 09:36:51;;;;;;;3.90;1.83;;;;;;;26.16;37.96;98149.56;4481485;31;33414;-60
2023/11/11 09:39:19;;;;;;;8.23;2.50;;;;;;;26.14;38.07;98150.94;4499593;31;34720;-61
2023/11/11 09:41:47;;;;;;;4.68;2.03;;;;;;;26.10;38.27;98147.94;4491717;31;34492;-60
2023/11/11 09:44:16;;;;;;;5.55;2.42;;;;;;;26.09;38.35;98150.97;4481060;32;34530;-60
2023/11/11 09:46:54;;;;;;;6.18;2.15;;;;;;;26.07;38.41;98148.53;4482643;32;33358;-60
2023/11/11 09:49:22;;;;;;;11.10;2.60;;;;;;;26.07;38.48;98150.44;4483485;32;33926;-62
2023/11/11 09:51:50;;;;;;;4.57;2.33;;;;;;;26.04;38.60;98145.53;4478825;32;34652;-61
2023/11/11 09:54:17;;;;;;;5.07;2.28;;;;;;;26.02;38.71;98148.56;4470864;32;33627;-61
2023/11/11 09:56:45;;;;;;;4.65;2.05;;;;;;;26.03;38.82;98147.44;4470797;32;33590;-61
2023/11/11 09:59:16;;;;;;;8.40;2.60;;;;;;;25.99;38.94;98140.91;4481358;32;34706;-61
2023/11/11 10:01:48;;;;;;;6.65;2.40;;;;;;;25.97;38.96;98145.03;4481919;32;33934;-60
2023/11/11 10:04:16;;;;;;;4.30;2.17;;;;;;;25.97;38.99;98145.03;4482327;32;33705;-61
2023/11/11 10:06:44;;;;;;;3.53;2.28;;;;;;;25.91;39.08;98141.50;4482954;32;33543;-60
2023/11/11 10:09:17;;;;;;;8.07;2.58;;;;;;;25.90;39.11;98142.63;4482965;32;34628;-61
2023/11/11 10:11:45;;;;;;;9.35;3.00;;;;;;;25.87;39.13;98140.44;4479781;32;33988;-60
2023/11/11 10:14:13;;;;;;;7.95;2.47;;;;;;;25.84;39.17;98144.56;4476112;32;34486;-61
2023/11/11 10:16:43;;;;;;;14.25;3.28;;;;;;;25.79;39.43;98147.34;4478810;32;34314;-61
2023/11/11 10:19:12;;;;;;;16.62;3.50;;;;;;;25.74;39.57;98152.78;4482724;32;33917;-61
2023/11/11 10:21:39;;;;;;;11.30;3.12;;;;;;;25.69;39.55;98145.44;4481286;32;33575;-62
2023/11/11 10:24:08;;;;;;;8.73;2.78;;;;;;;25.67;39.55;98144.06;4482006;32;34113;-62
2023/11/11 10:26:38;;;;;;;11.88;3.15;;;;;;;25.63;39.38;98146.53;4482529;32;33524;-61
2023/11/11 10:29:09;;;;;;;8.45;2.80;;;;;;;25.60;39.38;98138.94;4482912;32;34787;-62
2023/11/11 10:31:37;;;;;;;14.52;3.22;;;;;;;25.59;39.34;98141.91;4483149;32;34519;-62
2023/11/11 10:34:05;;;;;;;11.32;2.62;;;;;;;25.55;39.40;98144.38;4481926;32;33978;-62
2023/11/11 10:36:51;;;;;;;8.07;2.50;;;;;;;25.52;39.43;98139.50;4480990;32;33447;-62
2023/11/11 10:39:19;;;;;;;9.95;3.00;;;;;;;25.52;39.45;98138.69;4483810;32;33934;-61
2023/11/11 10:41:46;;;;;;;9.52;2.92;;;;;;;25.47;39.50;98144.19;4483030;32;34633;-62
2023/11/11 10:44:14;;;;;;;8.40;2.75;;;;;;;25.44;39.57;98137.34;4481667;32;34698;-61
2023/11/11 10:46:42;;;;;;;10.95;3.30;;;;;;;25.40;39.60;98139.81;4483611;32;33465;-62
2023/11/11 10:49:10;;;;;;;7.62;2.42;;;;;;;25.38;39.63;98141.22;4482724;32;33800;-62
2023/11/11 10:51:38;;;;;;;9.13;2.70;;;;;;;25.35;39.69;98139.03;4482434;32;33854;-61
2023/11/11 10:54:05;;;;;;;10.27;2.90;;;;;;;25.33;39.70;98143.97;4466660;32;33481;-61
2023/11/11 10:56:33;;;;;;;9.25;2.70;;;;;;;25.31;39.74;98143.41;4482455;32;33395;-61
2023/11/11 10:59:02;;;;;;;8.38;2.47;;;;;;;25.29;39.75;98149.16;4482994;32;33611;-61
2023/11/11 11:01:32;;;;;;;5.97;2.85;;;;;;;25.26;39.80;98141.50;4484169;32;34770;-61
2023/11/11 11:03:59;;;;;;;8.55;2.50;;;;;;;25.25;39.80;98142.63;4485312;32;33638;-61
2023/11/11 11:06:33;;;;;;;5.82;3.22;;;;;;;25.24;39.84;98145.62;4479558;32;34176;-61
2023/11/11 11:09:42;;;;;;;8.45;3.15;;;;;;;25.21;39.86;98144.25;4468564;32;33480;-61
2023/11/11 11:12:25;;;;;;;5.30;2.50;;;;;;;25.20;39.87;98142.63;4475266;32;34856;-61
2023/11/11 11:14:55;;;;;;;7.37;2.70;;;;;;;25.15;39.97;98140.75;4484192;32;33789;-61
2023/11/11 11:17:43;;;;;;;6.30;2.60;;;;;;;25.12;40.01;98141.28;4484165;32;33448;-61
2023/11/11 11:20:14;;;;;;;7.20;2.72;;;;;;;25.12;40.00;98146.75;4485226;32;35302;-62
2023/11/11 11:22:42;;;;;;;12.13;3.58;;;;;;;25.08;40.08;98137.47;4484086;32;33490;-61
2023/11/11 11:25:30;;;;;;;9.80;2.90;;;;;;;25.06;40.13;98147.00;4483764;32;34049;-62
2023/11/11 11:28:19;;;;;;;7.90;2.67;;;;;;;25.05;40.11;98146.19;4483854;32;34151;-61
2023/11/11 11:30:49;;;;;;;6.82;3.00;;;;;;;25.04;40.14;98150.03;4480881;32;33804;-62
2023/11/11 11:33:17;;;;;;;7.47;2.40;;;;;;;25.01;40.20;98150.56;4482609;32;33506;-62
2023/11/11 11:35:47;;;;;;;4.97;2.67;;;;;;;24.99;40.23;98155.47;4483846;32;33587;-61
2023/11/11 11:38:27;;;;;;;5.53;2.58;;;;;;;24.97;40.24;98149.50;4483192;32;33117;-61
2023/11/11 11:41:05;;;;;;;5.15;2.35;;;;;;;24.99;40.38;98152.75;4467832;32;33739;-61